Time;durP1;ratioP1;P1;durP2;ratioP2;P2;SDS_P1;SDS_P2;PMS_P1;PMS_P2;Temp;Humidity;BMP_temperature;BMP_pressure;BME280_temperature;BME280_humidity;BME280_pressure;Samples;Min_cycle;Max_cycle;Signal;HPM_P1;HPM_P2
2023/10/08 00:00:46;;;;;;;5.45;3.42;;;;;;;15.59;46.05;97488.38;4975251;28;20058;-77
2023/10/08 00:03:14;;;;;;;9.07;4.20;;;;;;;15.62;46.54;97492.44;4975040;28;20050;-77
2023/10/08 00:05:42;;;;;;;7.88;4.45;;;;;;;15.63;46.28;97494.06;4974467;28;20097;-77
2023/10/08 00:08:11;;;;;;;10.00;3.80;;;;;;;15.64;46.66;97496.50;4974707;28;20125;-77
2023/10/08 00:10:42;;;;;;;7.35;4.10;;;;;;;15.64;46.76;97491.25;4974948;28;20054;-77
2023/10/08 00:13:12;;;;;;;8.03;4.27;;;;;;;15.65;46.58;97495.50;4974882;28;20125;-76
2023/10/08 00:15:42;;;;;;;8.88;3.75;;;;;;;15.66;46.83;97488.44;4974563;28;20146;-77
2023/10/08 00:18:11;;;;;;;8.68;3.95;;;;;;;15.64;47.10;97488.63;4974746;28;20086;-77
2023/10/08 00:20:47;;;;;;;9.40;4.05;;;;;;;15.63;47.00;97481.75;4975143;28;20065;-77
2023/10/08 00:23:17;;;;;;;6.65;4.28;;;;;;;15.63;47.26;97480.91;4974710;28;20487;-77
2023/10/08 00:25:47;;;;;;;8.65;4.60;;;;;;;15.62;47.45;97488.00;4974368;28;20106;-76
2023/10/08 00:28:14;;;;;;;7.22;4.07;;;;;;;15.61;46.76;97470.59;4975088;28;20410;-76
2023/10/08 00:30:42;;;;;;;8.20;3.55;;;;;;;15.61;46.70;97481.13;4974352;28;20129;-76
2023/10/08 00:33:11;;;;;;;7.00;3.35;;;;;;;15.62;46.01;97469.59;4974561;28;20430;-77
2023/10/08 00:35:40;;;;;;;7.18;3.00;;;;;;;15.66;45.47;97478.72;4985749;28;20058;-77
2023/10/08 00:38:14;;;;;;;6.72;3.50;;;;;;;15.69;45.69;97472.25;4992106;28;20190;-77
2023/10/08 00:40:45;;;;;;;7.00;3.22;;;;;;;15.72;46.00;97460.56;4981934;28;20058;-77
2023/10/08 00:43:33;;;;;;;6.13;3.65;;;;;;;15.74;45.55;97458.56;4974748;28;20055;-77
2023/10/08 00:46:01;;;;;;;7.97;3.42;;;;;;;15.76;45.05;97462.59;4974201;28;20529;-77
2023/10/08 00:48:36;;;;;;;8.00;3.20;;;;;;;15.79;44.69;97464.06;4974228;28;20057;-77
2023/10/08 00:51:16;;;;;;;6.80;3.85;;;;;;;15.80;44.42;97452.53;4973951;28;20042;-77
2023/10/08 00:53:45;;;;;;;7.20;3.22;;;;;;;15.83;44.55;97455.59;4973859;28;20057;-76
2023/10/08 00:56:19;;;;;;;6.43;3.65;;;;;;;15.85;44.77;97456.22;4974201;28;20051;-77
2023/10/08 00:58:53;;;;;;;6.30;3.05;;;;;;;15.85;44.88;97455.38;4974039;28;20515;-77
2023/10/08 01:01:21;;;;;;;7.50;3.15;;;;;;;15.84;45.63;97454.56;4974290;28;20130;-76
2023/10/08 01:03:49;;;;;;;6.45;3.10;;;;;;;15.84;45.78;97451.13;4976639;28;20449;-77
2023/10/08 01:06:19;;;;;;;6.43;3.58;;;;;;;15.79;46.53;97450.91;4973646;28;20500;-77
2023/10/08 01:08:52;;;;;;;10.02;3.80;;;;;;;15.74;47.07;97448.88;4973932;28;20134;-77
2023/10/08 01:11:29;;;;;;;9.18;3.97;;;;;;;15.70;47.32;97444.97;4984174;28;20042;-77
2023/10/08 01:14:00;;;;;;;7.20;3.45;;;;;;;15.64;47.51;97436.00;4973617;28;20054;-76
2023/10/08 01:16:28;;;;;;;8.75;3.65;;;;;;;15.61;47.54;97439.03;4973486;28;20058;-77
2023/10/08 01:18:56;;;;;;;6.47;3.60;;;;;;;15.56;47.26;97436.16;4973916;28;20069;-77
2023/10/08 01:21:33;;;;;;;9.63;3.72;;;;;;;15.53;47.42;97438.38;4973842;28;20053;-77
2023/10/08 01:24:06;;;;;;;7.22;3.80;;;;;;;15.48;48.13;97430.25;4975107;28;20051;-77
2023/10/08 01:26:33;;;;;;;9.75;4.32;;;;;;;15.44;48.52;97427.19;4975527;28;20738;-78
2023/10/08 01:29:06;;;;;;;7.00;4.13;;;;;;;15.41;48.46;97431.03;4973944;28;20050;-77
2023/10/08 01:31:34;;;;;;;9.40;4.18;;;;;;;15.39;49.59;97434.81;4988406;28;20078;-77
2023/10/08 01:34:04;;;;;;;6.90;4.40;;;;;;;15.33;49.87;97435.63;4987497;28;20093;-76
2023/10/08 01:36:32;;;;;;;11.95;4.45;;;;;;;15.25;49.93;97439.19;4981026;28;20102;-77
2023/10/08 01:39:02;;;;;;;6.75;4.32;;;;;;;15.19;50.50;97439.94;4973743;28;20133;-77
2023/10/08 01:41:30;;;;;;;7.18;4.13;;;;;;;15.13;50.77;97441.53;4973683;28;20050;-77
2023/10/08 01:43:59;;;;;;;7.60;4.53;;;;;;;15.11;50.72;97438.28;4973465;28;20141;-76
2023/10/08 01:46:27;;;;;;;8.63;4.03;;;;;;;15.09;50.87;97447.34;4973605;28;20054;-76
2023/10/08 01:49:03;;;;;;;7.15;4.28;;;;;;;15.07;51.06;97442.28;4973723;28;20078;-77
2023/10/08 01:51:38;;;;;;;7.72;4.10;;;;;;;15.07;50.79;97437.03;4973415;28;20495;-77
2023/10/08 01:54:10;;;;;;;8.77;4.15;;;;;;;15.07;50.89;97433.59;4973954;28;20078;-77
2023/10/08 01:56:42;;;;;;;11.02;4.97;;;;;;;15.03;50.86;97436.59;4973586;28;20061;-77
2023/10/08 01:59:11;;;;;;;8.95;4.20;;;;;;;15.00;50.74;97430.91;4973484;28;20066;-77
2023/10/08 02:01:39;;;;;;;10.07;4.05;;;;;;;14.99;50.56;97437.97;4973492;28;20121;-76
2023/10/08 02:04:08;;;;;;;8.20;3.90;;;;;;;15.01;50.15;97432.53;4973061;28;20050;-76
2023/10/08 02:06:36;;;;;;;11.57;3.92;;;;;;;15.04;50.05;97430.34;4973133;28;20125;-77
2023/10/08 02:09:07;;;;;;;7.68;3.83;;;;;;;15.05;50.21;97439.03;4973284;28;20085;-76
2023/10/08 02:11:49;;;;;;;6.82;3.80;;;;;;;15.05;50.33;97444.28;4973418;28;20047;-76
2023/10/08 02:14:18;;;;;;;8.15;3.70;;;;;;;15.04;50.13;97438.22;4972786;28;20050;-77
2023/10/08 02:16:46;;;;;;;7.72;3.25;;;;;;;15.04;50.43;97437.38;4972951;28;20507;-77
2023/10/08 02:19:18;;;;;;;8.63;3.72;;;;;;;15.06;50.41;97439.84;4972746;28;20090;-77
2023/10/08 02:21:46;;;;;;;4.65;2.97;;;;;;;15.08;50.54;97437.84;4973648;28;20051;-76
2023/10/08 02:24:14;;;;;;;5.93;3.15;;;;;;;15.07;50.91;97442.28;4973263;28;20050;-76
2023/10/08 02:26:43;;;;;;;8.15;3.58;;;;;;;15.02;51.02;97440.22;4973085;28;20089;-77
2023/10/08 02:29:12;;;;;;;7.88;3.85;;;;;;;14.98;51.12;97436.34;4975637;28;20105;-76
2023/10/08 02:31:41;;;;;;;7.70;3.58;;;;;;;14.97;51.08;97437.34;4976634;28;20051;-76
2023/10/08 02:34:09;;;;;;;8.02;3.53;;;;;;;14.97;50.96;97436.53;4976688;28;20054;-77
2023/10/08 02:36:37;;;;;;;7.20;4.18;;;;;;;14.94;51.46;97436.91;4977333;28;20491;-76
2023/10/08 02:39:13;;;;;;;9.13;2.97;;;;;;;14.94;51.06;97436.91;4976574;28;20054;-76
2023/10/08 02:41:42;;;;;;;5.82;3.13;;;;;;;14.93;51.33;97435.28;4976343;28;20148;-77
2023/10/08 02:44:11;;;;;;;8.13;3.53;;;;;;;14.91;51.26;97435.50;4975916;28;20054;-77
2023/10/08 02:46:42;;;;;;;7.70;3.30;;;;;;;14.89;51.07;97440.13;4976703;28;20400;-77
2023/10/08 02:49:11;;;;;;;5.90;2.92;;;;;;;14.86;51.32;97434.41;4976191;28;20562;-77
2023/10/08 02:51:41;;;;;;;6.15;2.95;;;;;;;14.87;50.28;97441.28;4976326;28;20274;-76
2023/10/08 02:54:16;;;;;;;6.93;3.05;;;;;;;14.88;49.72;97440.28;4975934;28;20050;-77
2023/10/08 02:56:45;;;;;;;6.90;3.13;;;;;;;14.89;49.44;97444.53;4976178;28;20051;-77
2023/10/08 02:59:14;;;;;;;5.80;2.75;;;;;;;14.91;49.97;97447.78;4976331;28;20052;-76
2023/10/08 03:01:43;;;;;;;7.68;3.80;;;;;;;14.91;49.25;97446.00;4976088;28;20117;-77
2023/10/08 03:04:18;;;;;;;7.07;3.20;;;;;;;14.92;49.11;97442.34;4975940;28;20430;-77
2023/10/08 03:06:50;;;;;;;8.73;3.33;;;;;;;14.94;48.58;97442.16;4976577;28;20059;-76
2023/10/08 03:09:20;;;;;;;5.73;3.13;;;;;;;14.94;48.61;97440.34;4975873;28;20561;-76
2023/10/08 03:11:49;;;;;;;7.68;3.25;;;;;;;14.96;48.49;97445.44;4976249;28;20746;-77
2023/10/08 03:14:21;;;;;;;6.93;3.85;;;;;;;14.98;48.21;97432.91;4975829;28;20055;-77
2023/10/08 03:16:51;;;;;;;;;;;;;;;15.01;48.45;97437.78;4981697;28;20054;-77
2023/10/08 03:19:21;;;;;;;9.60;3.65;;;;;;;14.99;48.38;97435.34;4983430;28;21545;-79
2023/10/08 03:21:51;;;;;;;5.97;3.28;;;;;;;15.00;47.96;97434.34;4976015;28;20573;-76
2023/10/08 03:24:36;;;;;;;6.60;3.30;;;;;;;15.01;48.44;97432.53;4975490;28;20050;-77
2023/10/08 03:27:15;;;;;;;6.97;3.53;;;;;;;15.02;48.45;97439.38;4975596;28;20057;-76
2023/10/08 03:29:43;;;;;;;5.78;2.97;;;;;;;14.99;48.99;97429.28;4975529;28;20212;-77
2023/10/08 03:32:16;;;;;;;10.93;3.42;;;;;;;14.96;49.49;97440.16;4975263;28;20196;-76
2023/10/08 03:34:46;;;;;;;4.22;2.90;;;;;;;14.94;49.46;97442.16;4975687;28;20499;-77
2023/10/08 03:37:21;;;;;;;8.57;3.55;;;;;;;14.94;49.63;97447.44;4975768;28;20046;-77
2023/10/08 03:39:51;;;;;;;7.43;3.35;;;;;;;14.92;49.97;97457.31;4974196;28;20051;-77
2023/10/08 03:42:23;;;;;;;7.65;3.10;;;;;;;14.89;50.16;97455.88;4975664;28;20113;-77
2023/10/08 03:44:52;;;;;;;7.97;3.22;;;;;;;14.86;50.40;97461.50;4977400;28;20074;-77
2023/10/08 03:47:22;;;;;;;7.22;3.58;;;;;;;14.83;50.63;97461.88;4984757;28;20109;-77
2023/10/08 03:49:51;;;;;;;6.38;3.05;;;;;;;14.79;50.74;97458.78;4983211;28;20053;-77
2023/10/08 03:52:23;;;;;;;7.18;3.90;;;;;;;14.75;50.99;97457.53;4975638;28;20047;-76
2023/10/08 03:55:04;;;;;;;8.88;3.42;;;;;;;14.75;51.14;97459.34;4975262;28;20082;-76
2023/10/08 03:57:42;;;;;;;8.20;3.47;;;;;;;14.74;51.01;97455.94;4975110;28;20518;-77
2023/10/08 04:00:17;;;;;;;7.10;3.03;;;;;;;14.74;51.24;97466.44;4975333;28;20075;-76
2023/10/08 04:02:54;;;;;;;6.68;3.30;;;;;;;14.74;51.38;97461.19;4974960;28;20216;-76
2023/10/08 04:05:27;;;;;;;7.65;3.40;;;;;;;14.74;51.32;97453.31;4974706;28;20051;-76
2023/10/08 04:08:17;;;;;;;5.70;3.33;;;;;;;14.72;51.26;97450.03;4975263;28;20059;-76
2023/10/08 04:13:32;;;;;;;8.35;3.28;;;;;;;14.66;50.91;97445.53;4974106;28;20086;-77
2023/10/08 04:16:00;;;;;;;8.25;3.42;;;;;;;14.62;50.98;97439.03;4974612;28;20174;-76
2023/10/08 04:18:28;;;;;;;5.88;2.97;;;;;;;14.61;51.34;97432.16;4974838;28;20327;-76
2023/10/08 04:21:04;;;;;;;5.63;3.03;;;;;;;14.60;51.06;97436.56;4974656;28;20134;-77
2023/10/08 04:23:32;;;;;;;6.50;3.63;;;;;;;14.60;50.66;97446.28;4974491;28;20050;-76
2023/10/08 04:26:00;;;;;;;8.95;3.17;;;;;;;14.60;49.65;97441.84;4974472;28;20081;-77
2023/10/08 04:28:31;;;;;;;6.55;3.20;;;;;;;14.62;49.33;97436.41;4974301;28;20059;-76
2023/10/08 04:31:01;;;;;;;10.40;3.53;;;;;;;14.62;49.31;97433.78;4974648;28;20061;-77
2023/10/08 04:33:33;;;;;;;7.57;3.25;;;;;;;14.62;49.01;97431.16;4974455;28;20458;-77
2023/10/08 04:36:02;;;;;;;7.65;3.30;;;;;;;14.62;49.26;97434.59;4974779;28;20067;-77
2023/10/08 04:38:36;;;;;;;6.30;3.45;;;;;;;14.64;49.33;97439.66;4975105;28;20074;-76
2023/10/08 04:41:08;;;;;;;8.02;3.08;;;;;;;14.64;49.51;97442.28;4974204;28;20062;-79
2023/10/08 04:43:38;;;;;;;6.10;2.80;;;;;;;14.63;49.79;97435.41;4974362;28;20055;-77
2023/10/08 04:46:19;;;;;;;8.82;3.25;;;;;;;14.63;49.96;97432.78;4974252;28;20490;-77
2023/10/08 04:48:49;;;;;;;8.05;3.03;;;;;;;14.61;49.93;97432.16;4974382;28;20047;-77
2023/10/08 04:51:17;;;;;;;14.52;3.45;;;;;;;14.60;50.34;97426.06;4973504;28;20498;-77
2023/10/08 04:53:47;;;;;;;8.90;3.42;;;;;;;14.59;50.90;97434.16;4974475;28;20411;-76
2023/10/08 04:56:16;;;;;;;7.05;2.70;;;;;;;14.57;50.99;97436.16;4974143;28;20051;-77
2023/10/08 04:58:46;;;;;;;8.20;3.35;;;;;;;14.54;51.29;97439.09;4974008;28;20133;-76
2023/10/08 05:01:27;;;;;;;8.85;3.78;;;;;;;14.52;50.81;97443.72;4973854;28;20054;-77
2023/10/08 05:04:23;;;;;;;11.07;3.83;;;;;;;14.49;51.24;97452.78;4973868;28;20054;-76
2023/10/08 05:07:00;;;;;;;4.97;2.67;;;;;;;14.47;51.45;97454.78;4974113;28;20149;-77
2023/10/08 05:09:45;;;;;;;9.60;3.92;;;;;;;14.48;51.44;97448.56;4974109;28;20058;-76
2023/10/08 05:12:30;;;;;;;5.45;2.97;;;;;;;14.47;51.41;97451.34;4973649;28;20145;-76
2023/10/08 05:15:21;;;;;;;8.13;3.22;;;;;;;14.47;51.70;97459.22;4973630;28;20137;-76
2023/10/08 05:17:57;;;;;;;7.22;3.20;;;;;;;14.48;51.41;97479.25;4973493;28;20054;-77
2023/10/08 05:20:58;;;;;;;7.35;3.17;;;;;;;14.48;51.71;97474.00;4973697;28;20482;-76
2023/10/08 05:26:20;;;;;;;6.35;2.72;;;;;;;14.46;51.78;97486.50;4981145;28;20077;-76
2023/10/08 05:29:00;;;;;;;8.98;2.95;;;;;;;14.45;51.72;97490.09;4984026;28;20082;-77
2023/10/08 05:31:46;;;;;;;4.82;3.05;;;;;;;14.42;52.01;97492.09;4986280;28;20138;-77
2023/10/08 05:34:32;;;;;;;8.18;3.25;;;;;;;14.41;52.01;97479.97;4979355;28;20054;-77
2023/10/08 05:39:46;;;;;;;8.38;2.90;;;;;;;14.40;52.12;97478.34;4971264;28;20057;-77
2023/10/08 05:42:15;;;;;;;6.55;3.45;;;;;;;14.40;52.37;97477.53;4974293;28;20525;-76
2023/10/08 05:44:46;;;;;;;7.22;3.60;;;;;;;14.39;52.36;97484.59;4973634;28;20590;-77
2023/10/08 05:47:37;;;;;;;10.15;2.92;;;;;;;14.39;52.60;97471.47;4973417;28;20121;-76
2023/10/08 05:53:01;;;;;;;7.75;3.30;;;;;;;14.39;52.43;97474.09;4974165;28;20085;-77
2023/10/08 05:55:34;;;;;;;9.23;3.35;;;;;;;14.37;52.78;97483.97;4973801;28;20105;-79
2023/10/08 06:03:59;;;;;;;10.00;3.30;;;;;;;14.32;53.01;97473.22;5089628;27;20354;-79
2023/10/08 06:06:37;;;;;;;8.40;3.55;;;;;;;14.32;52.83;97464.50;5091947;28;20051;-78
2023/10/08 06:09:21;;;;;;;7.03;3.13;;;;;;;14.31;53.05;97468.16;5100466;28;20112;-79
2023/10/08 06:12:09;;;;;;;7.80;3.38;;;;;;;14.28;53.24;97464.09;5102972;28;20519;-76
2023/10/08 06:17:34;;;;;;;11.48;3.75;;;;;;;14.26;53.75;97471.31;5094526;22;20053;-79
2023/10/08 06:20:09;;;;;;;9.70;3.65;;;;;;;14.28;53.90;97469.34;5050785;28;20080;-79
2023/10/08 06:22:37;;;;;;;7.75;3.67;;;;;;;14.32;53.30;97470.59;5050262;28;20057;-79
2023/10/08 06:25:18;;;;;;;10.80;3.30;;;;;;;14.36;52.58;97471.81;5049741;28;20049;-80
2023/10/08 06:27:45;;;;;;;8.43;3.35;;;;;;;14.45;52.23;97463.84;5050297;28;20128;-79
2023/10/08 06:30:16;;;;;;;10.23;3.33;;;;;;;14.49;52.62;97465.13;5050061;28;20060;-79
2023/10/08 06:32:45;;;;;;;6.80;3.00;;;;;;;14.53;52.98;97458.50;5049630;28;20060;-79
2023/10/08 06:35:17;;;;;;;5.53;3.33;;;;;;;14.58;52.91;97458.78;5049082;28;20108;-79
2023/10/08 06:37:49;;;;;;;5.88;2.83;;;;;;;14.61;52.78;97461.84;5049890;28;20497;-79
2023/10/08 06:43:16;;;;;;;6.90;3.17;;;;;;;14.68;52.13;97458.50;5111458;27;20361;-80
2023/10/08 06:45:46;;;;;;;8.63;3.97;;;;;;;14.70;51.89;97462.56;5111324;28;20575;-80
2023/10/08 06:48:20;;;;;;;10.00;3.22;;;;;;;14.75;51.79;97462.00;5111871;28;20044;-80
2023/10/08 06:50:49;;;;;;;8.52;3.20;;;;;;;14.80;51.86;97470.09;5111957;28;20055;-79
2023/10/08 06:58:45;;;;;;;5.90;2.78;;;;;;;15.04;51.98;97474.19;4996391;23;20078;-78
2023/10/08 07:01:13;;;;;;;7.13;2.80;;;;;;;15.12;52.15;97471.44;4977532;28;20466;-79
2023/10/08 07:03:41;;;;;;;6.78;2.65;;;;;;;15.19;52.40;97480.16;4978117;28;20078;-79
2023/10/08 07:06:25;;;;;;;6.95;2.88;;;;;;;15.28;52.99;97485.31;4992326;28;20079;-79
2023/10/08 07:09:22;;;;;;;5.25;2.63;;;;;;;15.35;53.16;97486.16;4991859;28;20475;-80
2023/10/08 07:12:13;;;;;;;8.80;2.83;;;;;;;15.42;54.16;97476.53;4991471;28;20047;-80
2023/10/08 07:14:51;;;;;;;11.07;3.38;;;;;;;15.48;54.31;97481.03;4991861;28;20054;-79
2023/10/08 07:17:27;;;;;;;7.60;3.05;;;;;;;15.53;53.50;97483.88;4991159;28;20512;-80
2023/10/08 07:20:09;;;;;;;7.20;3.50;;;;;;;15.58;53.92;97481.50;4974701;28;20105;-80
2023/10/08 07:22:44;;;;;;;7.85;3.53;;;;;;;15.64;54.15;97486.00;4990443;28;20137;-80
2023/10/08 07:30:54;;;;;;;8.38;3.40;;;;;;;15.87;54.21;97490.19;4996613;28;20054;-80
2023/10/08 07:33:36;;;;;;;11.30;3.78;;;;;;;15.95;52.60;97492.69;4979027;28;20430;-79
2023/10/08 07:36:14;;;;;;;8.02;3.17;;;;;;;16.03;52.51;97494.34;4990972;28;20051;-80
2023/10/08 07:38:47;;;;;;;12.05;3.80;;;;;;;16.15;52.98;97498.03;4991003;28;20061;-79
2023/10/08 07:41:22;;;;;;;7.63;3.25;;;;;;;16.27;52.63;97495.69;4990798;28;20101;-80
2023/10/08 07:43:55;;;;;;;7.55;3.72;;;;;;;16.37;52.45;97490.03;4990821;28;20113;-80
2023/10/08 07:46:57;;;;;;;8.55;3.38;;;;;;;16.48;52.31;97482.38;4990500;28;20125;-79
2023/10/08 07:49:30;;;;;;;9.30;3.58;;;;;;;16.55;52.14;97485.06;4990870;28;20069;-80
2023/10/08 07:52:16;;;;;;;13.75;4.35;;;;;;;16.61;52.09;97486.06;4990440;28;20054;-80
2023/10/08 07:55:05;;;;;;;14.80;4.35;;;;;;;16.72;52.23;97482.06;4976862;28;20534;-79
2023/10/08 08:01:13;;;;;;;9.57;4.03;;;;;;;17.45;49.24;97466.34;4977198;28;20167;-79
2023/10/08 08:03:45;;;;;;;10.98;3.88;;;;;;;17.66;48.05;97463.47;4976187;28;20046;-80
2023/10/08 08:06:13;;;;;;;6.70;3.17;;;;;;;17.81;47.98;97471.16;4976106;28;20078;-80
2023/10/08 08:08:41;;;;;;;6.85;3.55;;;;;;;18.09;47.51;97484.13;4976346;28;20145;-80
2023/10/08 08:11:11;;;;;;;6.75;3.40;;;;;;;18.47;46.65;97486.00;4976591;28;20054;-80
2023/10/08 08:13:42;;;;;;;7.47;2.78;;;;;;;18.91;45.73;97481.75;4976244;28;20055;-80
2023/10/08 08:16:16;;;;;;;6.80;2.88;;;;;;;19.22;44.98;97497.78;4976767;28;20137;-80
2023/10/08 08:18:45;;;;;;;7.82;3.10;;;;;;;19.36;44.18;97515.19;4977366;28;20051;-80
2023/10/08 08:21:15;;;;;;;10.32;2.90;;;;;;;19.43;43.46;97521.25;4978112;28;20054;-81
2023/10/08 08:23:47;;;;;;;8.52;2.85;;;;;;;19.54;43.26;97525.81;4978272;28;20053;-81
2023/10/08 08:26:27;;;;;;;8.73;2.95;;;;;;;19.71;42.65;97539.38;4978616;28;20073;-81
2023/10/08 08:28:56;;;;;;;5.13;2.50;;;;;;;19.93;42.21;97549.56;4978257;28;20058;-81
2023/10/08 08:31:25;;;;;;;7.00;2.78;;;;;;;20.15;41.24;97556.06;4978922;28;20051;-81
2023/10/08 08:33:56;;;;;;;7.47;2.88;;;;;;;20.25;41.19;97576.75;4978622;28;20055;-81
2023/10/08 08:36:25;;;;;;;8.45;3.25;;;;;;;20.29;41.10;97582.41;4978361;28;20105;-80
2023/10/08 08:38:53;;;;;;;5.70;2.45;;;;;;;20.31;41.55;97586.50;4978409;28;20515;-81
2023/10/08 08:41:22;;;;;;;5.45;2.42;;;;;;;20.34;41.58;97585.22;4978311;28;20046;-82
2023/10/08 08:43:56;;;;;;;7.28;2.95;;;;;;;20.41;41.53;97580.66;4978812;28;20073;-81
2023/10/08 08:46:31;;;;;;;6.78;2.38;;;;;;;20.49;41.36;97572.44;4978423;28;20462;-81
2023/10/08 08:49:03;;;;;;;5.40;2.65;;;;;;;20.54;41.51;97585.81;4978491;28;20058;-83
2023/10/08 08:51:32;;;;;;;5.93;3.00;;;;;;;20.57;41.57;97585.41;4978634;28;20059;-81
2023/10/08 08:54:00;;;;;;;7.15;2.75;;;;;;;20.69;41.57;97592.63;4977450;28;20137;-81
2023/10/08 08:56:31;;;;;;;4.45;2.83;;;;;;;20.81;41.44;97585.53;4977593;28;20090;-80
2023/10/08 08:59:00;;;;;;;5.88;2.40;;;;;;;20.93;41.30;97580.28;4977940;28;20125;-79
2023/10/08 09:01:29;;;;;;;7.88;2.80;;;;;;;21.05;40.94;97580.34;4975591;28;20609;-78
2023/10/08 09:04:05;;;;;;;6.15;2.55;;;;;;;21.20;40.96;97578.09;4975235;28;20052;-79
2023/10/08 09:06:34;;;;;;;5.07;2.72;;;;;;;21.49;40.90;97575.66;4974834;28;20530;-79
2023/10/08 09:09:21;;;;;;;5.63;2.35;;;;;;;21.84;40.29;97573.03;4976042;28;20141;-79
2023/10/08 09:11:51;;;;;;;5.88;2.63;;;;;;;22.19;39.94;97573.06;4976851;28;20055;-80
2023/10/08 09:14:21;;;;;;;6.90;2.92;;;;;;;22.44;39.92;97587.16;4975569;28;20056;-79
2023/10/08 09:16:49;;;;;;;4.43;2.78;;;;;;;22.63;39.72;97581.47;4975676;28;20097;-79
2023/10/08 09:19:19;;;;;;;7.30;2.45;;;;;;;22.81;39.59;97580.47;4975906;28;20711;-80
2023/10/08 09:22:01;;;;;;;6.03;2.80;;;;;;;23.06;39.12;97584.69;4975938;28;20129;-79
2023/10/08 09:24:28;;;;;;;4.82;2.50;;;;;;;23.30;38.93;97582.75;4980641;28;20090;-79
2023/10/08 09:26:58;;;;;;;5.38;3.30;;;;;;;23.52;38.49;97576.72;4980448;28;20111;-82
2023/10/08 09:29:26;;;;;;;4.20;2.70;;;;;;;23.68;38.37;97581.25;4977664;28;20054;-80
2023/10/08 09:31:55;;;;;;;10.23;3.33;;;;;;;23.88;38.21;97572.81;4977947;28;20518;-80
2023/10/08 09:34:27;;;;;;;3.20;2.20;;;;;;;24.07;37.62;97578.66;4976988;28;20056;-80
2023/10/08 09:36:56;;;;;;;5.05;2.70;;;;;;;24.15;37.27;97580.94;4976640;28;20053;-80
2023/10/08 09:39:26;;;;;;;5.82;2.55;;;;;;;24.13;37.28;97575.03;4985741;28;20534;-80
2023/10/08 09:41:55;;;;;;;5.25;2.78;;;;;;;24.02;37.72;97574.06;4977212;28;20050;-80
2023/10/08 09:44:25;;;;;;;5.38;2.63;;;;;;;23.88;37.71;97575.47;4976656;28;20133;-80
2023/10/08 09:47:04;;;;;;;5.60;3.10;;;;;;;23.73;37.84;97577.88;4976792;28;20526;-80
2023/10/08 09:49:42;;;;;;;3.85;2.30;;;;;;;23.58;37.84;97570.44;4976597;28;20050;-80
2023/10/08 09:52:12;;;;;;;8.82;2.60;;;;;;;23.45;38.23;97566.22;4976733;28;20050;-80
2023/10/08 09:54:47;;;;;;;5.68;2.97;;;;;;;23.35;38.38;97568.72;4975464;28;20047;-80
2023/10/08 09:57:18;;;;;;;5.07;2.78;;;;;;;23.29;38.04;97573.16;4975792;28;20050;-79
2023/10/08 09:59:48;;;;;;;3.33;2.30;;;;;;;23.24;37.83;97581.03;4975768;28;20138;-80
2023/10/08 10:02:17;;;;;;;6.57;3.33;;;;;;;23.16;37.81;97570.78;4976592;28;20273;-80
2023/10/08 10:04:46;;;;;;;6.30;2.83;;;;;;;23.06;38.54;97579.38;4978195;28;20074;-80
2023/10/08 10:07:16;;;;;;;5.07;2.42;;;;;;;23.03;38.07;97575.34;4991159;28;20086;-80
2023/10/08 10:09:46;;;;;;;4.70;2.63;;;;;;;23.00;38.71;97578.50;4992430;28;20104;-79
2023/10/08 10:12:25;;;;;;;4.95;2.78;;;;;;;23.01;38.54;97582.75;4994566;28;20035;-80
2023/10/08 10:14:55;;;;;;;4.38;2.72;;;;;;;22.99;38.47;97584.00;4982336;28;20047;-80
2023/10/08 10:17:26;;;;;;;6.07;2.85;;;;;;;22.95;38.77;97581.00;4980734;28;20065;-79
2023/10/08 10:20:13;;;;;;;5.93;2.95;;;;;;;22.93;38.96;97584.97;4976723;28;20528;-79
2023/10/08 10:22:43;;;;;;;6.13;2.72;;;;;;;22.87;39.11;97581.41;4973822;28;20109;-80
2023/10/08 10:25:16;;;;;;;6.97;2.88;;;;;;;22.80;39.32;97591.34;4973520;28;20066;-80
2023/10/08 10:28:27;;;;;;;5.32;2.58;;;;;;;22.75;39.76;97601.91;4973568;28;20121;-80
2023/10/08 10:30:56;;;;;;;5.68;3.10;;;;;;;22.70;39.57;97580.53;4974010;28;20546;-79
2023/10/08 10:33:30;;;;;;;7.05;2.85;;;;;;;22.67;39.88;97579.13;4973192;28;20490;-79
2023/10/08 10:36:01;;;;;;;5.30;3.05;;;;;;;22.68;40.12;97574.63;4973555;28;20114;-80
2023/10/08 10:38:29;;;;;;;6.07;2.40;;;;;;;22.70;40.41;97577.88;4974209;28;20058;-80
2023/10/08 10:41:07;;;;;;;4.63;2.63;;;;;;;22.74;40.33;97577.16;4974170;28;20130;-80
2023/10/08 10:43:40;;;;;;;8.57;2.63;;;;;;;22.88;40.26;97577.69;4973549;28;20057;-80
2023/10/08 10:46:29;;;;;;;5.15;2.88;;;;;;;23.07;40.26;97567.69;4974043;28;20055;-80
2023/10/08 10:49:17;;;;;;;6.70;3.10;;;;;;;23.19;40.11;97579.09;4974144;28;20072;-80
2023/10/08 10:51:47;;;;;;;5.35;3.40;;;;;;;23.26;40.18;97583.47;4973816;28;20081;-79
2023/10/08 10:54:20;;;;;;;6.35;2.88;;;;;;;23.27;40.17;97575.25;4973659;28;20059;-79
2023/10/08 10:56:52;;;;;;;5.13;2.80;;;;;;;23.24;40.23;97578.38;4973470;28;20117;-79
2023/10/08 10:59:27;;;;;;;9.80;3.42;;;;;;;23.22;40.04;97580.47;4974260;28;20121;-80
2023/10/08 11:02:07;;;;;;;4.88;2.83;;;;;;;23.27;39.99;97575.25;4974739;28;20050;-80
2023/10/08 11:04:47;;;;;;;5.30;3.13;;;;;;;23.52;39.94;97582.03;4974220;28;20122;-80
2023/10/08 11:07:16;;;;;;;6.68;2.78;;;;;;;24.05;39.62;97572.78;4973968;28;20055;-80
2023/10/08 11:09:44;;;;;;;5.95;2.92;;;;;;;24.49;38.80;97564.91;4974086;28;20057;-80
2023/10/08 11:12:18;;;;;;;5.65;2.53;;;;;;;24.84;38.05;97561.03;4974126;28;20109;-79
2023/10/08 11:14:48;;;;;;;4.30;2.60;;;;;;;25.19;37.73;97579.31;4973982;28;20062;-79
2023/10/08 11:17:17;;;;;;;3.90;2.40;;;;;;;25.44;37.40;97568.06;4974128;28;20082;-79
2023/10/08 11:19:46;;;;;;;7.72;2.90;;;;;;;25.61;36.89;97564.47;4974233;28;20047;-79
2023/10/08 11:22:18;;;;;;;6.15;3.00;;;;;;;25.65;36.48;97570.91;4973970;28;20094;-80
2023/10/08 11:24:48;;;;;;;6.22;3.50;;;;;;;25.61;36.53;97575.16;4974996;28;20137;-79
2023/10/08 11:27:28;;;;;;;5.10;2.78;;;;;;;25.57;36.20;97588.19;4974206;28;20094;-80
2023/10/08 11:29:59;;;;;;;7.28;3.05;;;;;;;25.47;36.41;97575.59;4978044;28;20120;-79
2023/10/08 11:32:29;;;;;;;4.72;2.58;;;;;;;25.44;36.68;97573.41;4977923;28;20046;-79
2023/10/08 11:34:59;;;;;;;4.05;2.70;;;;;;;25.52;36.46;97573.97;4977851;28;20531;-80
2023/10/08 11:37:28;;;;;;;5.95;2.83;;;;;;;26.06;36.03;97571.22;4978045;28;20074;-80
2023/10/08 11:39:58;;;;;;;4.47;2.30;;;;;;;27.11;34.25;97565.81;4977557;28;20106;-80
2023/10/08 11:42:43;;;;;;;7.30;3.40;;;;;;;27.81;33.43;97559.16;4977945;28;20046;-80
2023/10/08 11:45:19;;;;;;;7.22;3.00;;;;;;;28.54;31.95;97570.34;4981702;28;20049;-80
2023/10/08 11:47:48;;;;;;;6.20;2.78;;;;;;;28.87;31.49;97554.63;4981190;28;20129;-80
2023/10/08 11:50:19;;;;;;;6.43;3.40;;;;;;;28.98;30.73;97563.41;4982576;28;20141;-80
2023/10/08 11:52:47;;;;;;;7.38;3.08;;;;;;;28.94;30.70;97559.69;4979261;28;20390;-79
2023/10/08 11:55:18;;;;;;;6.25;2.67;;;;;;;28.72;30.73;97550.13;4978468;28;20055;-80
2023/10/08 11:57:48;;;;;;;5.55;3.45;;;;;;;28.48;31.39;97549.97;4978763;28;20050;-80
2023/10/08 12:00:19;;;;;;;5.80;2.78;;;;;;;28.28;31.54;97537.38;4979200;28;20058;-80
2023/10/08 12:02:52;;;;;;;5.13;2.85;;;;;;;28.15;31.45;97532.59;4979408;28;20065;-80
2023/10/08 12:05:20;;;;;;;8.52;3.08;;;;;;;27.94;32.27;97523.78;4978582;28;20466;-80
2023/10/08 12:07:50;;;;;;;8.77;3.10;;;;;;;27.74;31.98;97513.88;4978292;28;20500;-81
2023/10/08 12:10:22;;;;;;;9.00;3.22;;;;;;;27.49;32.06;97510.16;4978825;28;20043;-80
2023/10/08 12:12:52;;;;;;;7.18;2.75;;;;;;;27.23;32.61;97514.69;4978548;28;20133;-80
2023/10/08 12:15:22;;;;;;;6.13;3.50;;;;;;;26.98;32.92;97523.47;4977789;28;20134;-80
2023/10/08 12:18:08;;;;;;;7.28;3.30;;;;;;;26.80;33.31;97521.28;4977893;28;20054;-79
2023/10/08 12:20:38;;;;;;;5.68;3.35;;;;;;;26.58;33.73;97524.16;4978127;28;20070;-80
2023/10/08 12:23:10;;;;;;;6.32;3.10;;;;;;;26.33;33.73;97512.28;4977801;28;20051;-80
2023/10/08 12:25:38;;;;;;;7.35;2.90;;;;;;;26.08;33.83;97520.97;4977414;28;20051;-79
2023/10/08 12:28:06;;;;;;;5.65;3.03;;;;;;;25.87;34.29;97534.19;4976978;28;20581;-80
2023/10/08 12:30:41;;;;;;;7.25;3.13;;;;;;;25.68;34.41;97530.31;4977331;28;20082;-80
2023/10/08 12:33:12;;;;;;;7.00;2.72;;;;;;;25.56;34.66;97519.81;4977196;28;20058;-80
2023/10/08 12:35:41;;;;;;;9.23;2.87;;;;;;;25.45;34.82;97524.28;4977988;28;20129;-80
2023/10/08 12:38:08;;;;;;;4.43;2.33;;;;;;;25.33;34.88;97518.28;4979046;28;20341;-81